CPX250 Details

Departure: Miami International Airport (KMIA)
Arrival: Ted Stevens Anchorage International Airport (PANC) at N/A
Route: WINCO2 WINCO CHRRI SMELZ Q116 JAWJA MGM IGB UJM OSW HLC MBW DBS PDT J20 SEA J523 TOU J501 YAZ Q801 YZP TR19 FRIED J804R EEDEN J804R MDO WITTI4
Notes:


Current Weather Information
KMIA 251153Z 20005KT 10SM FEW020 FEW045 SCT250 27/24 A2994 RMK AO2 SLP138 CB DSNT E-SE MOV NE 70003 T02720239 10278 20267 53010
PANC 251153Z 20003KT 4SM FU OVC080 12/08 A2986 RMK AO2 SLP111 T01170078 10144 20100 51010